Donnelsville, Ohio
Current Conditions -  °F | °C
As of 12:58 PM on Friday 28 Nov 2014 (Local Time) from KFFO Reporting Station
Clear Clear  
Wind Chill: 20°   Ceiling: Unl
Heat Index: 30°   Visibility: 10mi
Dew Point: 18°   Wind: 13mph
Humidity: 60%   Direction: 190°S
Pressure: 30.28"   Gusts: NA
Location:  39.92°N, 83.95°W
Report Text: KFFO 281758Z AUTO 19011KT 10SM CLR M01/M08 A3028 RMK AO2 SLP266 T10091078 11009 21063 58026
Loading
Personal Weather Stations






























Interactive Weather Map New forecast layout! Learn more

10-Day Weather Forecast

Advertisements
Track Severe Weather on mobile